sensor_id;sensor_type;location;lat;lon;timestamp;P1;durP1;ratioP1;P2;durP2;ratioP2
17145;SDS011;8688;54.444;18.444;2024-01-11T00:04:02;7.73;;;3.23;;
17145;SDS011;8688;54.444;18.444;2024-01-11T00:06:32;7.43;;;4.53;;
17145;SDS011;8688;54.444;18.444;2024-01-11T00:09:00;9.07;;;4.90;;
17145;SDS011;8688;54.444;18.444;2024-01-11T00:11:28;8.53;;;5.07;;
17145;SDS011;8688;54.444;18.444;2024-01-11T00:13:56;5.27;;;3.20;;
17145;SDS011;8688;54.444;18.444;2024-01-11T00:16:24;7.00;;;4.10;;
17145;SDS011;8688;54.444;18.444;2024-01-11T00:18:53;7.83;;;4.27;;
17145;SDS011;8688;54.444;18.444;2024-01-11T00:21:20;8.53;;;4.50;;
17145;SDS011;8688;54.444;18.444;2024-01-11T00:23:51;7.20;;;3.97;;
17145;SDS011;8688;54.444;18.444;2024-01-11T00:26:19;6.60;;;3.17;;
17145;SDS011;8688;54.444;18.444;2024-01-11T00:28:47;5.97;;;3.70;;
17145;SDS011;8688;54.444;18.444;2024-01-11T00:31:15;13.77;;;4.13;;
17145;SDS011;8688;54.444;18.444;2024-01-11T00:33:43;5.43;;;3.80;;
17145;SDS011;8688;54.444;18.444;2024-01-11T00:36:10;5.93;;;3.73;;
17145;SDS011;8688;54.444;18.444;2024-01-11T00:38:44;5.83;;;3.70;;
17145;SDS011;8688;54.444;18.444;2024-01-11T00:41:13;5.80;;;3.80;;
17145;SDS011;8688;54.444;18.444;2024-01-11T00:43:41;7.17;;;4.47;;
17145;SDS011;8688;54.444;18.444;2024-01-11T00:46:09;6.83;;;4.70;;
17145;SDS011;8688;54.444;18.444;2024-01-11T00:48:40;7.73;;;4.83;;
17145;SDS011;8688;54.444;18.444;2024-01-11T00:51:07;8.53;;;5.20;;
17145;SDS011;8688;54.444;18.444;2024-01-11T00:53:35;8.17;;;4.60;;
17145;SDS011;8688;54.444;18.444;2024-01-11T00:56:03;7.90;;;4.50;;
17145;SDS011;8688;54.444;18.444;2024-01-11T00:58:32;7.90;;;4.43;;
17145;SDS011;8688;54.444;18.444;2024-01-11T01:01:00;6.13;;;4.33;;
17145;SDS011;8688;54.444;18.444;2024-01-11T01:03:28;9.73;;;4.97;;
17145;SDS011;8688;54.444;18.444;2024-01-11T01:05:59;8.60;;;4.97;;
17145;SDS011;8688;54.444;18.444;2024-01-11T01:08:27;9.33;;;4.70;;
17145;SDS011;8688;54.444;18.444;2024-01-11T01:10:55;9.77;;;4.60;;
17145;SDS011;8688;54.444;18.444;2024-01-11T01:13:23;6.73;;;4.10;;
17145;SDS011;8688;54.444;18.444;2024-01-11T01:15:52;5.50;;;3.73;;
17145;SDS011;8688;54.444;18.444;2024-01-11T01:18:20;6.90;;;3.80;;
17145;SDS011;8688;54.444;18.444;2024-01-11T01:20:48;4.67;;;3.20;;
17145;SDS011;8688;54.444;18.444;2024-01-11T01:23:17;4.97;;;3.10;;
17145;SDS011;8688;54.444;18.444;2024-01-11T01:25:45;8.13;;;3.53;;
17145;SDS011;8688;54.444;18.444;2024-01-11T01:28:12;4.33;;;2.90;;
17145;SDS011;8688;54.444;18.444;2024-01-11T01:30:40;7.77;;;3.50;;
17145;SDS011;8688;54.444;18.444;2024-01-11T01:33:08;6.23;;;3.77;;
17145;SDS011;8688;54.444;18.444;2024-01-11T01:35:36;6.33;;;3.60;;
17145;SDS011;8688;54.444;18.444;2024-01-11T01:38:03;5.70;;;3.40;;
17145;SDS011;8688;54.444;18.444;2024-01-11T01:40:31;6.20;;;3.20;;
17145;SDS011;8688;54.444;18.444;2024-01-11T01:43:00;5.43;;;3.00;;
17145;SDS011;8688;54.444;18.444;2024-01-11T01:45:27;6.53;;;3.23;;
17145;SDS011;8688;54.444;18.444;2024-01-11T01:47:55;6.50;;;3.33;;
17145;SDS011;8688;54.444;18.444;2024-01-11T01:50:24;7.73;;;3.20;;
17145;SDS011;8688;54.444;18.444;2024-01-11T01:52:52;8.30;;;3.47;;
17145;SDS011;8688;54.444;18.444;2024-01-11T01:55:21;5.13;;;2.30;;
17145;SDS011;8688;54.444;18.444;2024-01-11T01:57:50;6.87;;;2.90;;
17145;SDS011;8688;54.444;18.444;2024-01-11T02:00:18;5.70;;;2.80;;
17145;SDS011;8688;54.444;18.444;2024-01-11T02:02:47;4.97;;;2.43;;
17145;SDS011;8688;54.444;18.444;2024-01-11T02:05:18;5.13;;;3.03;;
17145;SDS011;8688;54.444;18.444;2024-01-11T02:07:47;6.30;;;2.53;;
17145;SDS011;8688;54.444;18.444;2024-01-11T02:10:14;5.17;;;2.70;;
17145;SDS011;8688;54.444;18.444;2024-01-11T02:12:43;6.60;;;2.87;;
17145;SDS011;8688;54.444;18.444;2024-01-11T02:15:10;4.53;;;2.17;;
17145;SDS011;8688;54.444;18.444;2024-01-11T02:17:39;4.27;;;2.47;;
17145;SDS011;8688;54.444;18.444;2024-01-11T02:20:08;6.13;;;2.70;;
17145;SDS011;8688;54.444;18.444;2024-01-11T02:22:38;3.33;;;2.00;;
17145;SDS011;8688;54.444;18.444;2024-01-11T02:25:10;6.13;;;2.73;;
17145;SDS011;8688;54.444;18.444;2024-01-11T02:27:45;5.37;;;3.10;;
17145;SDS011;8688;54.444;18.444;2024-01-11T02:30:13;6.37;;;2.50;;
17145;SDS011;8688;54.444;18.444;2024-01-11T02:32:41;6.83;;;2.70;;
17145;SDS011;8688;54.444;18.444;2024-01-11T02:35:11;5.83;;;3.10;;
17145;SDS011;8688;54.444;18.444;2024-01-11T02:37:39;8.67;;;2.80;;
17145;SDS011;8688;54.444;18.444;2024-01-11T02:40:07;5.47;;;2.90;;
17145;SDS011;8688;54.444;18.444;2024-01-11T02:42:37;6.33;;;2.60;;
17145;SDS011;8688;54.444;18.444;2024-01-11T02:45:05;3.63;;;2.40;;
17145;SDS011;8688;54.444;18.444;2024-01-11T02:47:33;6.43;;;2.53;;
17145;SDS011;8688;54.444;18.444;2024-01-11T02:50:01;4.37;;;1.93;;
17145;SDS011;8688;54.444;18.444;2024-01-11T02:52:28;5.37;;;2.57;;
17145;SDS011;8688;54.444;18.444;2024-01-11T02:54:56;5.73;;;2.50;;
17145;SDS011;8688;54.444;18.444;2024-01-11T02:57:24;5.60;;;2.40;;
17145;SDS011;8688;54.444;18.444;2024-01-11T02:59:53;6.77;;;2.90;;
17145;SDS011;8688;54.444;18.444;2024-01-11T03:02:20;5.00;;;2.40;;
17145;SDS011;8688;54.444;18.444;2024-01-11T03:04:48;6.27;;;2.60;;
17145;SDS011;8688;54.444;18.444;2024-01-11T03:07:16;5.97;;;2.23;;
17145;SDS011;8688;54.444;18.444;2024-01-11T03:09:43;5.57;;;2.60;;
17145;SDS011;8688;54.444;18.444;2024-01-11T03:12:11;5.60;;;2.47;;
17145;SDS011;8688;54.444;18.444;2024-01-11T03:14:38;4.63;;;2.00;;
17145;SDS011;8688;54.444;18.444;2024-01-11T03:17:07;4.03;;;2.00;;
17145;SDS011;8688;54.444;18.444;2024-01-11T03:19:38;6.23;;;2.60;;
17145;SDS011;8688;54.444;18.444;2024-01-11T03:22:06;5.10;;;2.27;;
17145;SDS011;8688;54.444;18.444;2024-01-11T03:24:37;4.17;;;2.20;;
17145;SDS011;8688;54.444;18.444;2024-01-11T03:27:06;5.57;;;2.37;;
17145;SDS011;8688;54.444;18.444;2024-01-11T03:29:33;4.20;;;2.60;;
17145;SDS011;8688;54.444;18.444;2024-01-11T03:32:01;4.97;;;2.17;;
17145;SDS011;8688;54.444;18.444;2024-01-11T03:34:30;4.23;;;2.40;;
17145;SDS011;8688;54.444;18.444;2024-01-11T03:36:57;4.77;;;2.30;;
17145;SDS011;8688;54.444;18.444;2024-01-11T03:39:25;5.77;;;2.47;;
17145;SDS011;8688;54.444;18.444;2024-01-11T03:41:52;3.93;;;2.03;;
17145;SDS011;8688;54.444;18.444;2024-01-11T03:44:20;7.30;;;2.60;;
17145;SDS011;8688;54.444;18.444;2024-01-11T03:46:47;5.47;;;2.00;;
17145;SDS011;8688;54.444;18.444;2024-01-11T03:49:15;4.27;;;1.97;;
17145;SDS011;8688;54.444;18.444;2024-01-11T03:51:44;6.00;;;2.87;;
17145;SDS011;8688;54.444;18.444;2024-01-11T03:54:11;9.40;;;2.57;;
17145;SDS011;8688;54.444;18.444;2024-01-11T03:56:39;6.33;;;2.60;;
17145;SDS011;8688;54.444;18.444;2024-01-11T03:59:06;4.87;;;2.37;;
17145;SDS011;8688;54.444;18.444;2024-01-11T04:01:38;6.40;;;2.47;;
17145;SDS011;8688;54.444;18.444;2024-01-11T04:04:06;4.77;;;2.33;;
17145;SDS011;8688;54.444;18.444;2024-01-11T04:06:34;5.63;;;2.47;;
17145;SDS011;8688;54.444;18.444;2024-01-11T04:09:03;3.33;;;2.17;;
17145;SDS011;8688;54.444;18.444;2024-01-11T04:11:30;5.17;;;2.40;;
17145;SDS011;8688;54.444;18.444;2024-01-11T04:13:58;8.50;;;2.50;;
17145;SDS011;8688;54.444;18.444;2024-01-11T04:16:25;4.83;;;2.40;;
17145;SDS011;8688;54.444;18.444;2024-01-11T04:18:52;6.63;;;2.17;;
17145;SDS011;8688;54.444;18.444;2024-01-11T04:21:21;4.87;;;2.20;;
17145;SDS011;8688;54.444;18.444;2024-01-11T04:23:48;3.97;;;2.13;;
17145;SDS011;8688;54.444;18.444;2024-01-11T04:26:18;6.07;;;2.53;;
17145;SDS011;8688;54.444;18.444;2024-01-11T04:28:45;4.50;;;2.10;;
17145;SDS011;8688;54.444;18.444;2024-01-11T04:31:13;4.37;;;2.50;;
17145;SDS011;8688;54.444;18.444;2024-01-11T04:33:42;5.17;;;2.17;;
17145;SDS011;8688;54.444;18.444;2024-01-11T04:36:10;5.20;;;2.73;;
17145;SDS011;8688;54.444;18.444;2024-01-11T04:38:38;6.57;;;2.60;;
17145;SDS011;8688;54.444;18.444;2024-01-11T04:41:07;4.57;;;2.60;;
17145;SDS011;8688;54.444;18.444;2024-01-11T04:43:38;8.63;;;3.13;;
17145;SDS011;8688;54.444;18.444;2024-01-11T04:46:16;3.90;;;2.10;;
17145;SDS011;8688;54.444;18.444;2024-01-11T04:48:46;5.50;;;2.60;;
17145;SDS011;8688;54.444;18.444;2024-01-11T04:51:14;10.10;;;2.70;;
17145;SDS011;8688;54.444;18.444;2024-01-11T04:53:43;5.50;;;2.30;;
17145;SDS011;8688;54.444;18.444;2024-01-11T04:56:11;4.27;;;2.17;;
17145;SDS011;8688;54.444;18.444;2024-01-11T04:58:42;6.37;;;3.03;;
17145;SDS011;8688;54.444;18.444;2024-01-11T05:01:11;4.00;;;2.43;;
17145;SDS011;8688;54.444;18.444;2024-01-11T05:03:39;4.47;;;2.27;;
17145;SDS011;8688;54.444;18.444;2024-01-11T05:06:07;6.40;;;2.50;;
17145;SDS011;8688;54.444;18.444;2024-01-11T05:08:34;6.57;;;3.20;;
17145;SDS011;8688;54.444;18.444;2024-01-11T05:11:03;4.53;;;2.40;;
17145;SDS011;8688;54.444;18.444;2024-01-11T05:13:32;3.57;;;1.90;;
17145;SDS011;8688;54.444;18.444;2024-01-11T05:16:01;4.83;;;2.47;;
17145;SDS011;8688;54.444;18.444;2024-01-11T05:18:29;5.70;;;2.53;;
17145;SDS011;8688;54.444;18.444;2024-01-11T05:20:56;3.13;;;2.20;;
17145;SDS011;8688;54.444;18.444;2024-01-11T05:23:24;6.20;;;2.47;;
17145;SDS011;8688;54.444;18.444;2024-01-11T05:25:51;5.07;;;2.30;;
17145;SDS011;8688;54.444;18.444;2024-01-11T05:28:19;5.27;;;2.30;;
17145;SDS011;8688;54.444;18.444;2024-01-11T05:30:46;4.57;;;2.70;;
17145;SDS011;8688;54.444;18.444;2024-01-11T05:33:15;5.13;;;2.70;;
17145;SDS011;8688;54.444;18.444;2024-01-11T05:35:43;2.90;;;1.80;;
17145;SDS011;8688;54.444;18.444;2024-01-11T05:38:10;8.57;;;2.80;;
17145;SDS011;8688;54.444;18.444;2024-01-11T05:40:38;11.20;;;4.23;;
17145;SDS011;8688;54.444;18.444;2024-01-11T05:43:06;5.73;;;2.80;;
17145;SDS011;8688;54.444;18.444;2024-01-11T05:45:33;7.70;;;2.90;;
17145;SDS011;8688;54.444;18.444;2024-01-11T05:48:01;4.37;;;2.40;;
17145;SDS011;8688;54.444;18.444;2024-01-11T05:50:30;5.77;;;2.17;;
17145;SDS011;8688;54.444;18.444;2024-01-11T05:52:57;4.57;;;2.70;;
17145;SDS011;8688;54.444;18.444;2024-01-11T05:55:25;8.00;;;3.23;;
17145;SDS011;8688;54.444;18.444;2024-01-11T05:57:52;6.97;;;2.40;;
17145;SDS011;8688;54.444;18.444;2024-01-11T06:00:20;4.07;;;2.37;;
17145;SDS011;8688;54.444;18.444;2024-01-11T06:02:48;8.30;;;2.90;;
17145;SDS011;8688;54.444;18.444;2024-01-11T06:05:15;4.07;;;2.43;;
17145;SDS011;8688;54.444;18.444;2024-01-11T06:07:44;6.63;;;2.30;;
17145;SDS011;8688;54.444;18.444;2024-01-11T06:10:12;8.00;;;2.63;;
17145;SDS011;8688;54.444;18.444;2024-01-11T06:12:40;5.57;;;2.33;;
17145;SDS011;8688;54.444;18.444;2024-01-11T06:15:08;6.17;;;2.80;;
17145;SDS011;8688;54.444;18.444;2024-01-11T06:17:36;6.13;;;2.83;;
17145;SDS011;8688;54.444;18.444;2024-01-11T06:20:04;5.93;;;2.73;;
17145;SDS011;8688;54.444;18.444;2024-01-11T06:22:32;6.27;;;2.83;;
17145;SDS011;8688;54.444;18.444;2024-01-11T06:25:01;4.77;;;2.47;;
17145;SDS011;8688;54.444;18.444;2024-01-11T06:27:29;4.53;;;2.63;;
17145;SDS011;8688;54.444;18.444;2024-01-11T06:29:56;5.37;;;2.40;;
17145;SDS011;8688;54.444;18.444;2024-01-11T06:32:24;6.07;;;2.97;;
17145;SDS011;8688;54.444;18.444;2024-01-11T06:34:51;6.07;;;2.70;;
17145;SDS011;8688;54.444;18.444;2024-01-11T06:37:19;5.37;;;2.77;;
17145;SDS011;8688;54.444;18.444;2024-01-11T06:39:47;5.37;;;2.53;;
17145;SDS011;8688;54.444;18.444;2024-01-11T06:42:16;4.70;;;2.27;;
17145;SDS011;8688;54.444;18.444;2024-01-11T06:44:44;3.93;;;1.97;;
17145;SDS011;8688;54.444;18.444;2024-01-11T06:47:12;8.30;;;3.00;;
17145;SDS011;8688;54.444;18.444;2024-01-11T06:49:40;7.50;;;2.80;;
17145;SDS011;8688;54.444;18.444;2024-01-11T06:52:08;8.67;;;2.90;;
17145;SDS011;8688;54.444;18.444;2024-01-11T06:54:35;6.33;;;3.00;;
17145;SDS011;8688;54.444;18.444;2024-01-11T06:57:03;6.50;;;2.53;;
17145;SDS011;8688;54.444;18.444;2024-01-11T06:59:32;9.10;;;3.43;;
17145;SDS011;8688;54.444;18.444;2024-01-11T07:02:00;10.80;;;3.30;;
17145;SDS011;8688;54.444;18.444;2024-01-11T07:04:28;9.57;;;3.20;;
17145;SDS011;8688;54.444;18.444;2024-01-11T07:06:55;8.43;;;3.27;;
17145;SDS011;8688;54.444;18.444;2024-01-11T07:09:23;6.90;;;3.10;;
17145;SDS011;8688;54.444;18.444;2024-01-11T07:11:50;7.53;;;3.00;;
17145;SDS011;8688;54.444;18.444;2024-01-11T07:14:18;7.60;;;3.53;;
17145;SDS011;8688;54.444;18.444;2024-01-11T07:16:47;9.93;;;3.33;;
17145;SDS011;8688;54.444;18.444;2024-01-11T07:19:15;9.33;;;3.33;;
17145;SDS011;8688;54.444;18.444;2024-01-11T07:21:42;6.57;;;3.30;;
17145;SDS011;8688;54.444;18.444;2024-01-11T07:24:10;5.10;;;3.03;;
17145;SDS011;8688;54.444;18.444;2024-01-11T07:26:37;8.00;;;3.30;;
17145;SDS011;8688;54.444;18.444;2024-01-11T07:29:05;6.57;;;2.80;;
17145;SDS011;8688;54.444;18.444;2024-01-11T07:31:32;9.30;;;3.20;;
17145;SDS011;8688;54.444;18.444;2024-01-11T07:34:01;6.47;;;2.80;;
17145;SDS011;8688;54.444;18.444;2024-01-11T07:36:30;7.30;;;3.47;;
17145;SDS011;8688;54.444;18.444;2024-01-11T07:38:57;6.47;;;2.83;;
17145;SDS011;8688;54.444;18.444;2024-01-11T07:41:25;6.33;;;2.50;;
17145;SDS011;8688;54.444;18.444;2024-01-11T07:43:52;6.43;;;3.27;;
17145;SDS011;8688;54.444;18.444;2024-01-11T07:46:23;6.97;;;3.47;;
17145;SDS011;8688;54.444;18.444;2024-01-11T07:48:52;8.80;;;3.37;;
17145;SDS011;8688;54.444;18.444;2024-01-11T07:51:21;6.57;;;3.40;;
17145;SDS011;8688;54.444;18.444;2024-01-11T07:53:48;7.07;;;3.23;;
17145;SDS011;8688;54.444;18.444;2024-01-11T07:56:16;7.93;;;3.40;;
17145;SDS011;8688;54.444;18.444;2024-01-11T07:58:44;10.43;;;3.53;;
17145;SDS011;8688;54.444;18.444;2024-01-11T08:01:12;7.10;;;3.20;;
17145;SDS011;8688;54.444;18.444;2024-01-11T08:03:39;8.43;;;3.70;;
17145;SDS011;8688;54.444;18.444;2024-01-11T08:06:10;6.47;;;2.93;;
17145;SDS011;8688;54.444;18.444;2024-01-11T08:08:40;5.47;;;2.53;;
17145;SDS011;8688;54.444;18.444;2024-01-11T08:11:08;9.60;;;3.60;;
17145;SDS011;8688;54.444;18.444;2024-01-11T08:13:36;6.13;;;2.77;;
17145;SDS011;8688;54.444;18.444;2024-01-11T08:16:03;7.60;;;3.43;;
17145;SDS011;8688;54.444;18.444;2024-01-11T08:18:36;5.80;;;2.80;;
17145;SDS011;8688;54.444;18.444;2024-01-11T08:21:04;5.47;;;3.03;;
17145;SDS011;8688;54.444;18.444;2024-01-11T08:23:35;7.03;;;3.43;;
17145;SDS011;8688;54.444;18.444;2024-01-11T08:26:06;4.77;;;2.83;;
17145;SDS011;8688;54.444;18.444;2024-01-11T08:28:34;6.30;;;3.00;;
17145;SDS011;8688;54.444;18.444;2024-01-11T08:31:01;11.53;;;3.30;;
17145;SDS011;8688;54.444;18.444;2024-01-11T08:33:30;9.87;;;3.00;;
17145;SDS011;8688;54.444;18.444;2024-01-11T08:35:57;5.80;;;2.70;;
17145;SDS011;8688;54.444;18.444;2024-01-11T08:38:25;5.57;;;2.90;;
17145;SDS011;8688;54.444;18.444;2024-01-11T08:40:54;7.43;;;3.70;;
17145;SDS011;8688;54.444;18.444;2024-01-11T08:43:23;8.03;;;2.87;;
17145;SDS011;8688;54.444;18.444;2024-01-11T08:45:51;5.93;;;3.00;;
17145;SDS011;8688;54.444;18.444;2024-01-11T08:48:19;6.80;;;3.00;;
17145;SDS011;8688;54.444;18.444;2024-01-11T08:50:47;6.87;;;2.50;;
17145;SDS011;8688;54.444;18.444;2024-01-11T08:53:15;6.67;;;2.93;;
17145;SDS011;8688;54.444;18.444;2024-01-11T08:55:42;6.53;;;2.63;;
17145;SDS011;8688;54.444;18.444;2024-01-11T08:58:10;5.57;;;2.97;;
17145;SDS011;8688;54.444;18.444;2024-01-11T09:00:39;8.63;;;2.60;;
17145;SDS011;8688;54.444;18.444;2024-01-11T09:03:07;8.13;;;2.80;;
17145;SDS011;8688;54.444;18.444;2024-01-11T09:05:34;6.70;;;3.20;;
17145;SDS011;8688;54.444;18.444;2024-01-11T09:08:02;7.40;;;2.97;;
17145;SDS011;8688;54.444;18.444;2024-01-11T09:10:32;4.70;;;2.73;;
17145;SDS011;8688;54.444;18.444;2024-01-11T09:13:00;7.73;;;2.77;;
17145;SDS011;8688;54.444;18.444;2024-01-11T09:15:27;7.33;;;3.07;;
17145;SDS011;8688;54.444;18.444;2024-01-11T09:17:57;8.07;;;3.37;;
17145;SDS011;8688;54.444;18.444;2024-01-11T09:20:27;7.57;;;2.63;;
17145;SDS011;8688;54.444;18.444;2024-01-11T09:22:56;8.53;;;3.30;;
17145;SDS011;8688;54.444;18.444;2024-01-11T09:25:23;6.53;;;2.60;;
17145;SDS011;8688;54.444;18.444;2024-01-11T09:27:51;3.17;;;1.93;;
17145;SDS011;8688;54.444;18.444;2024-01-11T09:30:18;4.50;;;2.57;;
17145;SDS011;8688;54.444;18.444;2024-01-11T09:32:47;6.50;;;2.10;;
17145;SDS011;8688;54.444;18.444;2024-01-11T09:35:16;3.87;;;2.60;;
17145;SDS011;8688;54.444;18.444;2024-01-11T09:37:44;5.10;;;2.30;;
17145;SDS011;8688;54.444;18.444;2024-01-11T09:40:11;6.63;;;2.30;;
17145;SDS011;8688;54.444;18.444;2024-01-11T09:42:39;10.30;;;2.90;;
17145;SDS011;8688;54.444;18.444;2024-01-11T09:45:07;7.97;;;2.60;;
17145;SDS011;8688;54.444;18.444;2024-01-11T09:47:37;6.57;;;2.77;;
17145;SDS011;8688;54.444;18.444;2024-01-11T09:50:06;7.20;;;2.87;;
17145;SDS011;8688;54.444;18.444;2024-01-11T09:52:37;6.77;;;2.67;;
17145;SDS011;8688;54.444;18.444;2024-01-11T09:55:06;5.50;;;2.00;;
17145;SDS011;8688;54.444;18.444;2024-01-11T09:57:33;5.10;;;2.50;;
17145;SDS011;8688;54.444;18.444;2024-01-11T10:00:04;5.67;;;2.70;;
17145;SDS011;8688;54.444;18.444;2024-01-11T10:02:33;6.67;;;2.70;;
17145;SDS011;8688;54.444;18.444;2024-01-11T10:05:00;3.97;;;2.30;;
17145;SDS011;8688;54.444;18.444;2024-01-11T10:07:28;9.00;;;4.07;;
17145;SDS011;8688;54.444;18.444;2024-01-11T10:09:58;9.50;;;4.70;;
17145;SDS011;8688;54.444;18.444;2024-01-11T10:12:26;7.83;;;3.03;;
17145;SDS011;8688;54.444;18.444;2024-01-11T10:14:54;6.53;;;2.70;;
17145;SDS011;8688;54.444;18.444;2024-01-11T10:17:21;5.67;;;2.83;;
17145;SDS011;8688;54.444;18.444;2024-01-11T10:19:50;7.87;;;3.10;;
17145;SDS011;8688;54.444;18.444;2024-01-11T10:22:20;9.10;;;2.73;;
17145;SDS011;8688;54.444;18.444;2024-01-11T10:24:48;6.90;;;2.80;;
17145;SDS011;8688;54.444;18.444;2024-01-11T10:27:17;8.53;;;2.30;;
17145;SDS011;8688;54.444;18.444;2024-01-11T10:29:44;6.17;;;2.37;;
17145;SDS011;8688;54.444;18.444;2024-01-11T10:32:12;6.00;;;2.97;;
17145;SDS011;8688;54.444;18.444;2024-01-11T10:34:40;11.03;;;3.33;;
17145;SDS011;8688;54.444;18.444;2024-01-11T10:37:07;6.93;;;2.60;;
17145;SDS011;8688;54.444;18.444;2024-01-11T10:39:36;7.37;;;2.53;;
17145;SDS011;8688;54.444;18.444;2024-01-11T10:42:04;5.17;;;2.30;;
17145;SDS011;8688;54.444;18.444;2024-01-11T10:44:36;6.23;;;2.80;;
17145;SDS011;8688;54.444;18.444;2024-01-11T10:47:07;13.20;;;3.43;;
17145;SDS011;8688;54.444;18.444;2024-01-11T10:49:37;10.43;;;4.53;;
17145;SDS011;8688;54.444;18.444;2024-01-11T10:52:08;8.57;;;3.10;;
17145;SDS011;8688;54.444;18.444;2024-01-11T10:54:37;6.80;;;3.10;;
17145;SDS011;8688;54.444;18.444;2024-01-11T10:57:06;7.17;;;3.30;;
17145;SDS011;8688;54.444;18.444;2024-01-11T10:59:36;6.70;;;2.77;;
17145;SDS011;8688;54.444;18.444;2024-01-11T11:02:05;9.07;;;3.10;;
17145;SDS011;8688;54.444;18.444;2024-01-11T11:04:35;8.03;;;2.63;;
17145;SDS011;8688;54.444;18.444;2024-01-11T11:07:05;5.30;;;3.13;;
17145;SDS011;8688;54.444;18.444;2024-01-11T11:09:34;9.33;;;2.70;;
17145;SDS011;8688;54.444;18.444;2024-01-11T11:12:02;9.10;;;3.70;;
17145;SDS011;8688;54.444;18.444;2024-01-11T11:14:30;7.57;;;3.00;;
17145;SDS011;8688;54.444;18.444;2024-01-11T11:17:02;8.87;;;3.30;;
17145;SDS011;8688;54.444;18.444;2024-01-11T11:19:30;8.33;;;3.30;;
17145;SDS011;8688;54.444;18.444;2024-01-11T11:21:58;6.70;;;3.17;;
17145;SDS011;8688;54.444;18.444;2024-01-11T11:24:30;6.23;;;3.20;;
17145;SDS011;8688;54.444;18.444;2024-01-11T11:27:00;11.77;;;2.93;;
17145;SDS011;8688;54.444;18.444;2024-01-11T11:29:28;7.70;;;3.20;;
17145;SDS011;8688;54.444;18.444;2024-01-11T11:31:56;8.93;;;3.67;;
17145;SDS011;8688;54.444;18.444;2024-01-11T11:37:23;8.87;;;3.37;;
17145;SDS011;8688;54.444;18.444;2024-01-11T11:39:51;9.20;;;3.70;;
17145;SDS011;8688;54.444;18.444;2024-01-11T11:42:18;6.50;;;3.23;;
17145;SDS011;8688;54.444;18.444;2024-01-11T11:44:49;8.00;;;3.03;;
17145;SDS011;8688;54.444;18.444;2024-01-11T11:47:21;6.63;;;2.90;;
17145;SDS011;8688;54.444;18.444;2024-01-11T11:50:02;6.60;;;2.83;;
17145;SDS011;8688;54.444;18.444;2024-01-11T11:52:33;7.20;;;2.60;;
17145;SDS011;8688;54.444;18.444;2024-01-11T11:55:02;7.37;;;2.83;;
17145;SDS011;8688;54.444;18.444;2024-01-11T11:57:33;7.37;;;2.63;;
17145;SDS011;8688;54.444;18.444;2024-01-11T12:00:01;5.17;;;2.43;;
17145;SDS011;8688;54.444;18.444;2024-01-11T12:02:31;6.13;;;2.27;;
17145;SDS011;8688;54.444;18.444;2024-01-11T12:05:01;3.50;;;1.70;;
17145;SDS011;8688;54.444;18.444;2024-01-11T12:07:29;2.33;;;1.40;;
17145;SDS011;8688;54.444;18.444;2024-01-11T12:09:59;5.13;;;1.67;;
17145;SDS011;8688;54.444;18.444;2024-01-11T12:12:27;2.87;;;1.40;;
17145;SDS011;8688;54.444;18.444;2024-01-11T12:14:55;4.83;;;1.80;;
17145;SDS011;8688;54.444;18.444;2024-01-11T12:17:24;5.97;;;2.17;;
17145;SDS011;8688;54.444;18.444;2024-01-11T12:19:51;3.20;;;2.17;;
17145;SDS011;8688;54.444;18.444;2024-01-11T12:22:19;2.97;;;1.80;;
17145;SDS011;8688;54.444;18.444;2024-01-11T12:24:46;2.63;;;1.20;;
17145;SDS011;8688;54.444;18.444;2024-01-11T12:27:15;5.53;;;1.70;;
17145;SDS011;8688;54.444;18.444;2024-01-11T12:29:43;5.77;;;1.67;;
17145;SDS011;8688;54.444;18.444;2024-01-11T12:32:10;6.83;;;1.90;;
17145;SDS011;8688;54.444;18.444;2024-01-11T12:34:40;8.10;;;2.53;;
17145;SDS011;8688;54.444;18.444;2024-01-11T12:37:09;5.77;;;2.33;;
17145;SDS011;8688;54.444;18.444;2024-01-11T12:39:37;3.90;;;1.63;;
17145;SDS011;8688;54.444;18.444;2024-01-11T12:42:05;5.80;;;2.10;;
17145;SDS011;8688;54.444;18.444;2024-01-11T12:44:36;4.10;;;1.20;;
17145;SDS011;8688;54.444;18.444;2024-01-11T12:47:05;5.20;;;1.97;;
17145;SDS011;8688;54.444;18.444;2024-01-11T12:49:34;6.50;;;2.00;;
17145;SDS011;8688;54.444;18.444;2024-01-11T12:52:01;4.00;;;1.80;;
17145;SDS011;8688;54.444;18.444;2024-01-11T12:54:29;3.53;;;1.67;;
17145;SDS011;8688;54.444;18.444;2024-01-11T12:56:59;2.57;;;1.33;;
17145;SDS011;8688;54.444;18.444;2024-01-11T12:59:28;5.57;;;2.00;;
17145;SDS011;8688;54.444;18.444;2024-01-11T13:02:02;5.33;;;2.10;;
17145;SDS011;8688;54.444;18.444;2024-01-11T13:04:33;4.97;;;2.00;;
17145;SDS011;8688;54.444;18.444;2024-01-11T13:07:01;5.60;;;1.40;;
17145;SDS011;8688;54.444;18.444;2024-01-11T13:09:29;5.53;;;1.90;;
17145;SDS011;8688;54.444;18.444;2024-01-11T13:11:58;3.67;;;1.43;;
17145;SDS011;8688;54.444;18.444;2024-01-11T13:14:32;7.83;;;2.57;;
17145;SDS011;8688;54.444;18.444;2024-01-11T13:17:06;1.90;;;1.30;;
17145;SDS011;8688;54.444;18.444;2024-01-11T13:19:34;4.37;;;1.80;;
17145;SDS011;8688;54.444;18.444;2024-01-11T13:22:01;4.23;;;2.33;;
17145;SDS011;8688;54.444;18.444;2024-01-11T13:24:29;8.60;;;2.00;;
17145;SDS011;8688;54.444;18.444;2024-01-11T13:26:57;6.60;;;2.13;;
17145;SDS011;8688;54.444;18.444;2024-01-11T13:29:23;6.00;;;1.50;;
17145;SDS011;8688;54.444;18.444;2024-01-11T13:31:51;4.67;;;1.63;;
17145;SDS011;8688;54.444;18.444;2024-01-11T13:34:20;4.97;;;1.70;;
17145;SDS011;8688;54.444;18.444;2024-01-11T13:36:48;5.67;;;1.60;;
17145;SDS011;8688;54.444;18.444;2024-01-11T13:39:16;7.93;;;2.13;;
17145;SDS011;8688;54.444;18.444;2024-01-11T13:41:45;2.87;;;1.73;;
17145;SDS011;8688;54.444;18.444;2024-01-11T13:44:13;3.20;;;1.70;;
17145;SDS011;8688;54.444;18.444;2024-01-11T13:46:41;4.50;;;1.33;;
17145;SDS011;8688;54.444;18.444;2024-01-11T13:49:09;3.60;;;1.10;;
17145;SDS011;8688;54.444;18.444;2024-01-11T13:51:38;2.90;;;1.10;;
17145;SDS011;8688;54.444;18.444;2024-01-11T13:54:05;4.83;;;1.30;;
17145;SDS011;8688;54.444;18.444;2024-01-11T13:56:33;1.70;;;1.00;;
17145;SDS011;8688;54.444;18.444;2024-01-11T13:59:01;6.40;;;1.30;;
17145;SDS011;8688;54.444;18.444;2024-01-11T14:01:28;8.37;;;2.37;;
17145;SDS011;8688;54.444;18.444;2024-01-11T14:03:56;9.10;;;1.77;;
17145;SDS011;8688;54.444;18.444;2024-01-11T14:06:23;9.83;;;4.87;;
17145;SDS011;8688;54.444;18.444;2024-01-11T14:08:52;7.03;;;2.87;;
17145;SDS011;8688;54.444;18.444;2024-01-11T14:11:20;6.00;;;1.93;;
17145;SDS011;8688;54.444;18.444;2024-01-11T14:13:50;5.27;;;2.80;;
17145;SDS011;8688;54.444;18.444;2024-01-11T14:16:17;8.57;;;1.73;;
17145;SDS011;8688;54.444;18.444;2024-01-11T14:18:45;4.07;;;1.67;;
17145;SDS011;8688;54.444;18.444;2024-01-11T14:21:14;7.30;;;2.73;;
17145;SDS011;8688;54.444;18.444;2024-01-11T14:23:41;11.70;;;3.20;;
17145;SDS011;8688;54.444;18.444;2024-01-11T14:26:10;7.63;;;2.53;;
17145;SDS011;8688;54.444;18.444;2024-01-11T14:28:37;9.17;;;2.87;;
17145;SDS011;8688;54.444;18.444;2024-01-11T14:31:07;5.03;;;1.70;;
17145;SDS011;8688;54.444;18.444;2024-01-11T14:33:36;3.93;;;1.50;;
17145;SDS011;8688;54.444;18.444;2024-01-11T14:36:04;5.47;;;2.60;;
17145;SDS011;8688;54.444;18.444;2024-01-11T14:38:32;4.70;;;2.20;;
17145;SDS011;8688;54.444;18.444;2024-01-11T14:40:59;8.00;;;2.43;;
17145;SDS011;8688;54.444;18.444;2024-01-11T14:43:29;9.87;;;2.90;;
17145;SDS011;8688;54.444;18.444;2024-01-11T14:45:57;8.00;;;3.07;;
17145;SDS011;8688;54.444;18.444;2024-01-11T14:48:25;6.27;;;1.70;;
17145;SDS011;8688;54.444;18.444;2024-01-11T14:50:56;8.70;;;2.43;;
17145;SDS011;8688;54.444;18.444;2024-01-11T14:53:23;7.33;;;2.60;;
17145;SDS011;8688;54.444;18.444;2024-01-11T14:55:50;8.30;;;1.67;;
17145;SDS011;8688;54.444;18.444;2024-01-11T14:58:18;5.33;;;2.13;;
17145;SDS011;8688;54.444;18.444;2024-01-11T15:00:47;5.43;;;1.97;;